createdAt,value
2023-03-21T00:00:45.323Z,3.03
2023-03-21T00:03:12.171Z,3.53
2023-03-21T00:05:43.398Z,3.03
2023-03-21T00:08:10.027Z,2.00
2023-03-21T00:10:43.488Z,2.38
2023-03-21T00:13:15.705Z,4.05
2023-03-21T00:16:05.183Z,3.35
2023-03-21T00:18:42.596Z,2.25
2023-03-21T00:21:40.903Z,3.00
2023-03-21T00:24:02.316Z,2.90
2023-03-21T00:26:28.929Z,2.67
2023-03-21T00:28:55.600Z,3.88
2023-03-21T00:31:22.249Z,2.55
2023-03-21T00:33:48.779Z,2.63
2023-03-21T00:36:16.002Z,3.45
2023-03-21T00:38:43.201Z,2.13
2023-03-21T00:41:35.187Z,2.40
2023-03-21T00:43:59.398Z,3.58
2023-03-21T00:46:30.110Z,2.38
2023-03-21T00:49:02.882Z,2.45
2023-03-21T00:51:30.518Z,2.55
2023-03-21T00:53:58.631Z,3.03
2023-03-21T00:56:25.308Z,2.38
2023-03-21T00:58:51.908Z,4.38
2023-03-21T01:01:18.943Z,2.75
2023-03-21T01:03:51.011Z,2.35
2023-03-21T01:06:19.711Z,2.10
2023-03-21T01:08:52.777Z,2.00
2023-03-21T01:11:23.761Z,2.20
2023-03-21T01:13:56.142Z,3.13
2023-03-21T01:16:29.326Z,2.20
2023-03-21T01:18:56.344Z,1.90
2023-03-21T01:21:23.105Z,3.13
2023-03-21T01:23:49.682Z,2.28
2023-03-21T01:26:16.709Z,2.83
2023-03-21T01:28:44.725Z,2.65
2023-03-21T01:31:14.594Z,1.95
2023-03-21T01:33:41.674Z,2.17
2023-03-21T01:36:13.283Z,2.30
2023-03-21T01:38:41.620Z,2.15
2023-03-21T01:41:20.060Z,3.33
2023-03-21T01:43:47.544Z,2.05
2023-03-21T01:46:45.334Z,2.45
2023-03-21T01:49:19.037Z,1.65
2023-03-21T01:51:56.706Z,2.17
2023-03-21T01:54:29.574Z,1.92
2023-03-21T01:56:58.948Z,2.13
2023-03-21T01:59:31.873Z,3.00
2023-03-21T02:02:07.240Z,2.28
2023-03-21T02:04:35.785Z,2.15
2023-03-21T02:07:09.654Z,2.55
2023-03-21T02:09:40.309Z,1.85
2023-03-21T02:12:11.144Z,3.00
2023-03-21T02:14:39.040Z,2.15
2023-03-21T02:17:41.072Z,1.80
2023-03-21T02:20:41.866Z,2.00
2023-03-21T02:23:17.474Z,2.28
2023-03-21T02:25:52.875Z,1.52
2023-03-21T02:28:26.034Z,1.60
2023-03-21T02:31:22.864Z,2.00
2023-03-21T02:34:08.082Z,2.20
2023-03-21T02:37:18.909Z,2.13
2023-03-21T02:40:11.187Z,2.00
2023-03-21T02:43:04.325Z,1.80
2023-03-21T02:45:47.717Z,2.35
2023-03-21T02:48:29.128Z,1.80
2023-03-21T02:51:00.682Z,3.28
2023-03-21T02:53:34.073Z,1.88
2023-03-21T02:56:01.994Z,2.17
2023-03-21T02:58:30.844Z,3.42
2023-03-21T03:00:58.151Z,2.67
2023-03-21T03:03:34.151Z,1.70
2023-03-21T03:06:03.972Z,2.80
2023-03-21T03:09:02.158Z,2.63
2023-03-21T03:11:40.042Z,2.50
2023-03-21T03:14:41.712Z,2.97
2023-03-21T03:17:34.400Z,3.47
2023-03-21T03:20:17.030Z,2.40
2023-03-21T03:22:56.129Z,2.63
2023-03-21T03:25:41.574Z,3.50
2023-03-21T03:30:44.699Z,2.53
2023-03-21T03:33:17.932Z,3.30
2023-03-21T03:35:53.060Z,3.72
2023-03-21T03:38:27.771Z,3.50
2023-03-21T03:41:04.889Z,3.58
2023-03-21T03:43:46.886Z,4.60
2023-03-21T03:46:19.207Z,5.60
2023-03-21T03:48:54.569Z,4.13
2023-03-21T03:51:27.513Z,5.00
2023-03-21T03:54:21.698Z,4.30
2023-03-21T03:56:48.693Z,4.30
2023-03-21T03:59:19.451Z,5.60
2023-03-21T04:01:46.187Z,6.57
2023-03-21T04:04:13.872Z,5.57
2023-03-21T04:06:41.472Z,6.18
2023-03-21T04:09:19.081Z,5.85
2023-03-21T04:11:48.227Z,4.75
2023-03-21T04:14:15.396Z,4.97
2023-03-21T04:16:42.143Z,6.60
2023-03-21T04:19:09.392Z,6.18
2023-03-21T04:21:36.565Z,4.28
2023-03-21T04:24:03.367Z,6.00
2023-03-21T04:26:33.056Z,4.63
2023-03-21T04:29:00.888Z,4.97
2023-03-21T04:31:28.672Z,4.65
2023-03-21T04:33:56.082Z,8.23
2023-03-21T04:36:30.791Z,2.60
2023-03-21T04:39:01.562Z,3.67
2023-03-21T04:41:29.127Z,5.63
2023-03-21T04:43:56.521Z,5.13
2023-03-21T04:46:23.822Z,3.35
2023-03-21T04:48:50.405Z,4.68
2023-03-21T04:51:16.964Z,6.18
2023-03-21T04:53:45.962Z,5.55
2023-03-21T04:56:12.874Z,3.80
2023-03-21T04:58:40.672Z,8.13
2023-03-21T05:01:08.127Z,3.72
2023-03-21T05:03:40.063Z,4.00
2023-03-21T05:06:08.593Z,3.47
2023-03-21T05:08:38.412Z,3.45
2023-03-21T05:11:05.612Z,3.88
2023-03-21T05:13:32.209Z,4.35
2023-03-21T05:15:58.770Z,5.38
2023-03-21T05:18:26.147Z,5.93
2023-03-21T05:20:54.216Z,4.45
2023-03-21T05:23:22.495Z,5.15
2023-03-21T05:25:49.738Z,7.20
2023-03-21T05:28:19.831Z,4.35
2023-03-21T05:30:46.953Z,6.72
2023-03-21T05:33:13.721Z,4.55
2023-03-21T05:35:40.741Z,4.07
2023-03-21T05:38:07.744Z,3.08
2023-03-21T05:40:34.265Z,3.95
2023-03-21T05:43:00.920Z,4.00
2023-03-21T05:45:27.503Z,4.53
2023-03-21T05:47:54.165Z,6.18
2023-03-21T05:50:20.832Z,5.45
2023-03-21T05:52:47.430Z,3.25
2023-03-21T05:55:13.983Z,4.25
2023-03-21T05:57:41.044Z,3.22
2023-03-21T06:00:08.618Z,5.72
2023-03-21T06:02:35.338Z,5.90
2023-03-21T06:05:01.977Z,4.22
2023-03-21T06:07:28.544Z,4.53
2023-03-21T06:09:55.230Z,4.70
2023-03-21T06:12:21.781Z,4.95
2023-03-21T06:14:48.393Z,5.05
2023-03-21T06:17:14.985Z,3.85
2023-03-21T06:19:41.549Z,4.07
2023-03-21T06:22:08.139Z,4.03
2023-03-21T06:24:34.681Z,3.75
2023-03-21T06:27:03.518Z,4.50
2023-03-21T06:29:31.166Z,3.58
2023-03-21T06:31:57.815Z,5.38
2023-03-21T06:34:24.594Z,5.15
2023-03-21T06:36:52.156Z,4.53
2023-03-21T06:39:18.788Z,5.47
2023-03-21T06:41:45.371Z,7.30
2023-03-21T06:44:12.016Z,5.35
2023-03-21T06:46:38.642Z,8.10
2023-03-21T06:49:05.300Z,4.88
2023-03-21T06:51:31.920Z,4.47
2023-03-21T06:53:58.458Z,9.23
2023-03-21T06:56:25.006Z,6.00
2023-03-21T06:58:51.620Z,5.80
2023-03-21T07:01:18.247Z,6.75
2023-03-21T07:03:44.845Z,8.82
2023-03-21T07:06:12.016Z,5.68
2023-03-21T07:08:39.966Z,9.63
2023-03-21T07:11:07.254Z,8.02
2023-03-21T07:13:34.053Z,4.43
2023-03-21T07:16:00.933Z,7.57
2023-03-21T07:18:27.771Z,5.55
2023-03-21T07:20:54.354Z,8.55
2023-03-21T07:23:23.036Z,8.68
2023-03-21T07:25:50.726Z,6.68
2023-03-21T07:28:17.827Z,6.90
2023-03-21T07:30:45.926Z,4.90
2023-03-21T07:33:12.917Z,5.30
2023-03-21T07:35:39.777Z,5.97
2023-03-21T07:38:06.614Z,4.75
2023-03-21T07:40:33.688Z,7.22
2023-03-21T07:43:00.247Z,6.38
2023-03-21T07:45:27.410Z,8.73
2023-03-21T07:47:54.638Z,7.05
2023-03-21T07:50:21.625Z,8.50
2023-03-21T07:52:48.526Z,5.80
2023-03-21T07:55:17.297Z,6.07
2023-03-21T07:57:44.088Z,5.82
2023-03-21T08:00:11.805Z,6.13
2023-03-21T08:02:38.489Z,4.88
2023-03-21T08:05:05.359Z,4.75
2023-03-21T08:07:32.499Z,4.60
2023-03-21T08:09:59.123Z,5.07
2023-03-21T08:12:25.694Z,6.68
2023-03-21T08:14:52.231Z,4.22
2023-03-21T08:17:18.757Z,4.57
2023-03-21T08:19:45.570Z,3.95
2023-03-21T08:22:12.127Z,5.97
2023-03-21T08:24:38.685Z,4.90
2023-03-21T08:27:05.798Z,3.35
2023-03-21T08:29:32.337Z,4.28
2023-03-21T08:31:58.962Z,4.75
2023-03-21T08:34:26.692Z,4.75
2023-03-21T08:36:53.288Z,3.92
2023-03-21T08:39:21.840Z,4.53
2023-03-21T08:41:48.527Z,3.63
2023-03-21T08:44:16.942Z,4.07
2023-03-21T08:46:43.590Z,5.03
2023-03-21T08:49:10.178Z,5.60
2023-03-21T08:51:37.702Z,4.70
2023-03-21T08:54:04.466Z,4.15
2023-03-21T08:56:31.272Z,4.80
2023-03-21T08:58:59.018Z,4.15
2023-03-21T09:01:26.340Z,4.30
2023-03-21T09:03:52.930Z,2.65
2023-03-21T09:06:19.794Z,3.55
2023-03-21T09:08:46.429Z,3.20
2023-03-21T09:11:13.266Z,3.45
2023-03-21T09:13:39.840Z,3.72
2023-03-21T09:16:06.762Z,6.55
2023-03-21T09:18:47.238Z,2.38
2023-03-21T09:21:16.157Z,3.75
2023-03-21T09:23:44.900Z,3.40
2023-03-21T09:26:12.555Z,7.38
2023-03-21T09:28:40.648Z,4.35
2023-03-21T09:31:12.335Z,2.78
2023-03-21T09:33:42.561Z,4.70
2023-03-21T09:36:14.528Z,3.05
2023-03-21T09:38:45.035Z,2.30
2023-03-21T09:41:49.142Z,5.03
2023-03-21T09:45:01.399Z,2.30
2023-03-21T09:47:33.112Z,3.53
2023-03-21T09:50:17.504Z,4.65
2023-03-21T09:52:44.631Z,4.15
2023-03-21T09:55:21.301Z,2.10
2023-03-21T09:57:55.525Z,2.35
2023-03-21T10:00:29.762Z,3.80
2023-03-21T10:03:01.728Z,1.60
2023-03-21T10:05:31.110Z,3.95
2023-03-21T10:08:05.677Z,2.75
2023-03-21T10:10:37.481Z,2.40
2023-03-21T10:13:11.028Z,3.33
2023-03-21T10:15:37.849Z,2.00
2023-03-21T10:18:14.174Z,1.98
2023-03-21T10:20:42.589Z,3.83
2023-03-21T10:23:14.819Z,2.58
2023-03-21T10:25:55.980Z,2.50
2023-03-21T10:28:34.521Z,2.67
2023-03-21T10:31:09.546Z,2.60
2023-03-21T10:33:39.665Z,1.83
2023-03-21T10:36:11.445Z,2.97
2023-03-21T10:38:44.219Z,2.95
2023-03-21T10:41:13.871Z,2.08
2023-03-21T10:43:41.675Z,4.25
2023-03-21T10:46:08.399Z,1.40
2023-03-21T10:48:40.573Z,3.88
2023-03-21T10:51:09.855Z,2.13
2023-03-21T10:53:41.362Z,2.17
2023-03-21T10:56:11.733Z,3.80
2023-03-21T10:58:45.605Z,2.78
2023-03-21T11:01:16.716Z,3.40
2023-03-21T11:03:46.898Z,2.50
2023-03-21T11:06:22.421Z,1.88
2023-03-21T11:08:54.005Z,2.40
2023-03-21T11:11:27.439Z,1.25
2023-03-21T11:14:06.952Z,3.55
2023-03-21T11:16:41.053Z,3.25
2023-03-21T11:19:20.266Z,2.40
2023-03-21T11:21:46.995Z,2.10
2023-03-21T11:24:16.264Z,4.57
2023-03-21T11:26:46.129Z,2.97
2023-03-21T11:29:36.057Z,3.78
2023-03-21T11:32:19.741Z,3.90
2023-03-21T11:34:53.311Z,3.17
2023-03-21T11:37:28.823Z,1.95
2023-03-21T11:40:18.177Z,1.80
2023-03-21T11:42:48.239Z,2.72
2023-03-21T11:45:19.299Z,3.00
2023-03-21T11:47:47.861Z,2.92
2023-03-21T11:50:36.041Z,2.13
2023-03-21T11:53:17.237Z,2.58
2023-03-21T11:56:23.530Z,2.28
2023-03-21T11:59:15.878Z,1.83
2023-03-21T12:01:49.497Z,2.65
2023-03-21T12:04:50.437Z,2.83
2023-03-21T12:07:47.725Z,2.58
2023-03-21T12:10:39.941Z,2.13
2023-03-21T12:13:34.376Z,2.03
2023-03-21T12:16:26.046Z,1.92
2023-03-21T12:19:16.906Z,1.50
2023-03-21T12:22:17.598Z,2.00
2023-03-21T12:24:58.759Z,2.08
2023-03-21T12:27:42.087Z,3.75
2023-03-21T12:30:28.839Z,3.22
2023-03-21T12:32:58.394Z,1.85
2023-03-21T12:35:41.674Z,1.52
2023-03-21T12:38:13.517Z,2.30
2023-03-21T12:41:25.528Z,1.75
2023-03-21T12:44:02.869Z,1.40
2023-03-21T12:46:50.896Z,1.35
2023-03-21T12:49:23.578Z,2.00
2023-03-21T12:51:55.902Z,1.42
2023-03-21T12:54:25.408Z,1.80
2023-03-21T12:57:11.622Z,3.90
2023-03-21T13:02:33.134Z,1.33
2023-03-21T13:05:24.169Z,3.50
2023-03-21T13:07:57.228Z,1.83
2023-03-21T13:10:24.332Z,1.55
2023-03-21T13:13:07.641Z,1.90
2023-03-21T13:15:44.922Z,2.00
2023-03-21T13:18:17.629Z,2.22
2023-03-21T13:20:50.040Z,3.80
2023-03-21T13:23:19.241Z,1.15
2023-03-21T13:25:52.210Z,2.97
2023-03-21T13:28:23.218Z,3.08
2023-03-21T13:30:51.066Z,2.03
2023-03-21T13:33:34.864Z,3.85
2023-03-21T13:36:08.096Z,1.40
2023-03-21T13:38:40.135Z,1.73
2023-03-21T13:41:06.965Z,2.08
2023-03-21T13:43:44.419Z,3.30
2023-03-21T13:46:15.458Z,2.58
2023-03-21T13:48:59.940Z,3.35
2023-03-21T13:51:29.538Z,1.40
2023-03-21T13:54:08.026Z,2.05
2023-03-21T13:56:52.456Z,2.97
2023-03-21T13:59:35.364Z,2.33
2023-03-21T14:02:32.249Z,2.42
2023-03-21T14:05:05.742Z,2.33
2023-03-21T14:07:44.027Z,1.55
2023-03-21T14:10:53.984Z,3.35
2023-03-21T14:13:23.460Z,1.52
2023-03-21T14:15:59.732Z,2.25
2023-03-21T14:18:52.389Z,2.42
2023-03-21T14:21:24.030Z,6.82
2023-03-21T14:23:59.189Z,3.83
2023-03-21T14:26:29.589Z,2.45
2023-03-21T14:28:56.386Z,1.10
2023-03-21T14:31:23.407Z,2.88
2023-03-21T14:33:57.437Z,3.10
2023-03-21T14:36:27.888Z,1.23
2023-03-21T14:38:58.438Z,2.78
2023-03-21T14:41:27.809Z,2.55
2023-03-21T14:44:26.185Z,1.75
2023-03-21T14:46:59.583Z,1.17
2023-03-21T14:49:32.440Z,2.45
2023-03-21T14:52:06.639Z,2.03
2023-03-21T14:54:33.865Z,1.85
2023-03-21T14:57:03.190Z,2.75
2023-03-21T14:59:36.520Z,2.95
2023-03-21T15:02:18.139Z,2.35
2023-03-21T15:04:51.466Z,3.38
2023-03-21T15:07:31.024Z,3.00
2023-03-21T15:10:03.196Z,2.10
2023-03-21T15:12:33.434Z,1.42
2023-03-21T15:15:01.706Z,3.15
2023-03-21T15:17:29.054Z,2.00
2023-03-21T15:19:55.677Z,3.20
2023-03-21T15:22:24.885Z,1.85
2023-03-21T15:24:57.520Z,2.00
2023-03-21T15:27:25.329Z,6.93
2023-03-21T15:29:56.914Z,1.35
2023-03-21T15:32:26.350Z,2.33
2023-03-21T15:35:06.908Z,2.20
2023-03-21T15:37:36.624Z,1.50
2023-03-21T15:40:21.354Z,2.03
2023-03-21T15:42:47.942Z,2.00
2023-03-21T15:45:22.667Z,2.33
2023-03-21T15:47:49.221Z,3.20
2023-03-21T15:50:35.602Z,1.13
2023-03-21T15:53:11.880Z,4.05
2023-03-21T15:55:52.053Z,3.40
2023-03-21T15:58:22.270Z,1.95
2023-03-21T16:00:55.273Z,7.38
2023-03-21T16:03:30.531Z,1.65
2023-03-21T16:06:15.451Z,1.15
2023-03-21T16:08:50.166Z,1.95
2023-03-21T16:11:18.601Z,1.95
2023-03-21T16:13:46.016Z,1.98
2023-03-21T16:16:18.224Z,1.40
2023-03-21T16:18:45.034Z,1.13
2023-03-21T16:21:17.033Z,4.43
2023-03-21T16:23:43.978Z,2.35
2023-03-21T16:26:13.861Z,1.95
2023-03-21T16:28:40.454Z,1.80
2023-03-21T16:31:12.031Z,1.40
2023-03-21T16:33:38.913Z,1.40
2023-03-21T16:36:07.630Z,2.35
2023-03-21T16:38:34.227Z,2.55
2023-03-21T16:41:04.222Z,1.23
2023-03-21T16:43:30.878Z,2.05
2023-03-21T16:45:57.519Z,1.10
2023-03-21T16:48:24.147Z,3.95
2023-03-21T16:50:50.900Z,1.48
2023-03-21T16:53:17.517Z,1.80
2023-03-21T16:55:44.214Z,2.53
2023-03-21T16:58:14.491Z,2.33
2023-03-21T17:00:41.377Z,1.48
2023-03-21T17:03:18.998Z,1.08
2023-03-21T17:05:46.234Z,3.22
2023-03-21T17:08:18.502Z,1.92
2023-03-21T17:10:45.962Z,1.88
2023-03-21T17:13:12.555Z,2.78
2023-03-21T17:15:40.589Z,1.98
2023-03-21T17:18:07.232Z,3.67
2023-03-21T17:20:37.766Z,2.63
2023-03-21T17:23:04.991Z,2.22
2023-03-21T17:25:31.588Z,1.02
2023-03-21T17:27:58.175Z,1.42
2023-03-21T17:30:26.784Z,2.33
2023-03-21T17:32:54.269Z,2.67
2023-03-21T17:35:22.731Z,2.83
2023-03-21T17:37:52.642Z,1.60
2023-03-21T17:40:24.605Z,2.25
2023-03-21T17:42:52.130Z,1.42
2023-03-21T17:45:19.317Z,1.15
2023-03-21T17:47:46.723Z,2.42
2023-03-21T17:50:17.697Z,1.88
2023-03-21T17:52:44.645Z,2.08
2023-03-21T17:55:11.406Z,2.67
2023-03-21T17:57:38.213Z,1.88
2023-03-21T18:00:12.228Z,1.48
2023-03-21T18:02:41.723Z,4.20
2023-03-21T18:05:09.547Z,1.55
2023-03-21T18:08:07.947Z,2.72
2023-03-21T18:10:26.362Z,1.92
2023-03-21T18:12:55.960Z,2.17
2023-03-21T18:15:24.686Z,2.50
2023-03-21T18:17:51.485Z,1.65
2023-03-21T18:20:21.097Z,1.63
2023-03-21T18:22:48.312Z,2.00
2023-03-21T18:25:16.353Z,1.75
2023-03-21T18:28:06.783Z,1.67
2023-03-21T18:30:50.376Z,1.23
2023-03-21T18:33:16.454Z,1.27
2023-03-21T18:35:43.820Z,4.00
2023-03-21T18:38:10.599Z,1.17
2023-03-21T18:40:37.422Z,2.55
2023-03-21T18:45:51.981Z,3.50
2023-03-21T18:48:18.594Z,0.80
2023-03-21T18:50:45.479Z,1.15
2023-03-21T18:53:12.042Z,4.53
2023-03-21T18:55:46.006Z,1.70
2023-03-21T18:58:13.273Z,1.63
2023-03-21T19:00:42.714Z,1.13
2023-03-21T19:03:21.816Z,3.85
2023-03-21T19:05:59.223Z,1.75
2023-03-21T19:08:25.885Z,1.90
2023-03-21T19:10:53.110Z,1.77
2023-03-21T19:13:19.792Z,2.33
2023-03-21T19:15:49.384Z,3.30
2023-03-21T19:18:37.674Z,1.73
2023-03-21T19:21:03.575Z,2.17
2023-03-21T19:23:40.853Z,1.55
2023-03-21T19:26:16.886Z,2.53
2023-03-21T19:28:43.409Z,1.10
2023-03-21T19:31:10.016Z,1.52
2023-03-21T19:33:36.904Z,1.98
2023-03-21T19:36:17.720Z,3.45
2023-03-21T19:38:47.593Z,2.58
2023-03-21T19:41:14.340Z,3.60
2023-03-21T19:43:52.761Z,1.48
2023-03-21T19:46:24.607Z,1.08
2023-03-21T19:48:51.597Z,1.15
2023-03-21T19:51:28.122Z,1.63
2023-03-21T19:53:55.834Z,1.45
2023-03-21T19:56:26.539Z,1.70
2023-03-21T19:58:54.498Z,2.03
2023-03-21T20:01:21.335Z,2.38
2023-03-21T20:03:47.962Z,0.85
2023-03-21T20:06:14.655Z,4.10
2023-03-21T20:11:28.076Z,1.42
2023-03-21T20:13:54.711Z,3.95
2023-03-21T20:16:21.401Z,1.92
2023-03-21T20:18:48.078Z,2.50
2023-03-21T20:21:18.012Z,1.42
2023-03-21T20:23:50.949Z,1.33
2023-03-21T20:26:18.401Z,1.38
2023-03-21T20:29:00.158Z,1.77
2023-03-21T20:31:34.410Z,1.30
2023-03-21T20:34:01.091Z,1.10
2023-03-21T20:36:43.762Z,0.88
2023-03-21T20:39:11.115Z,2.25
2023-03-21T20:41:38.175Z,1.30
2023-03-21T20:46:51.850Z,2.78
2023-03-21T20:49:20.094Z,1.98
2023-03-21T20:52:46.237Z,0.95
2023-03-21T20:54:34.891Z,1.65
2023-03-21T20:57:01.616Z,3.58
2023-03-21T20:59:29.265Z,2.05
2023-03-21T21:01:57.402Z,1.13
2023-03-21T21:04:44.140Z,1.15
2023-03-21T21:07:15.904Z,1.30
2023-03-21T21:09:44.974Z,1.35
2023-03-21T21:12:12.280Z,2.63
2023-03-21T21:14:39.140Z,5.47
2023-03-21T21:17:24.451Z,2.03
2023-03-21T21:19:54.432Z,0.57
2023-03-21T21:22:21.067Z,4.93
2023-03-21T21:24:48.019Z,3.03
2023-03-21T21:27:14.637Z,2.85
2023-03-21T21:29:43.371Z,1.50
2023-03-21T21:32:11.282Z,1.80
2023-03-21T21:34:38.266Z,1.00
2023-03-21T21:37:05.152Z,1.35
2023-03-21T21:39:35.234Z,0.57
2023-03-21T21:42:02.586Z,1.17
2023-03-21T21:44:29.441Z,0.90
2023-03-21T21:46:57.472Z,2.38
2023-03-21T21:49:24.160Z,1.05
2023-03-21T21:51:50.763Z,3.20
2023-03-21T21:54:18.379Z,1.85
2023-03-21T21:56:48.484Z,0.50
2023-03-21T21:59:22.026Z,1.58
2023-03-21T22:01:51.305Z,2.53
2023-03-21T22:04:18.888Z,1.00
2023-03-21T22:06:47.511Z,0.85
2023-03-21T22:09:15.752Z,1.80
2023-03-21T22:11:42.815Z,0.85
2023-03-21T22:14:09.440Z,1.95
2023-03-21T22:16:36.385Z,3.00
2023-03-21T22:19:03.078Z,3.08
2023-03-21T22:21:29.671Z,4.82
2023-03-21T22:23:56.296Z,7.43
2023-03-21T22:26:23.551Z,3.63
2023-03-21T22:28:50.357Z,3.60
2023-03-21T22:31:17.577Z,4.45
2023-03-21T22:33:45.503Z,2.58
2023-03-21T22:36:12.268Z,5.22
2023-03-21T22:38:38.971Z,5.38
2023-03-21T22:41:06.537Z,4.75
2023-03-21T22:43:34.341Z,2.78
2023-03-21T22:46:02.625Z,6.65
2023-03-21T22:48:32.566Z,2.80
2023-03-21T22:50:59.871Z,5.13
2023-03-21T22:53:26.626Z,5.63
2023-03-21T22:55:53.265Z,2.83
2023-03-21T22:58:19.891Z,4.15
2023-03-21T23:00:47.335Z,7.35
2023-03-21T23:03:16.649Z,3.65
2023-03-21T23:05:44.502Z,5.10
2023-03-21T23:08:12.048Z,3.53
2023-03-21T23:10:39.830Z,3.50
2023-03-21T23:13:07.005Z,5.78
2023-03-21T23:15:33.886Z,5.45
2023-03-21T23:18:00.470Z,3.78
2023-03-21T23:20:27.097Z,5.25
2023-03-21T23:22:53.885Z,7.72
2023-03-21T23:25:20.728Z,3.78
2023-03-21T23:27:48.111Z,5.60
2023-03-21T23:30:14.941Z,4.47
2023-03-21T23:32:41.907Z,11.27
2023-03-21T23:35:08.938Z,4.20
2023-03-21T23:37:35.571Z,3.65
2023-03-21T23:40:02.308Z,5.00
2023-03-21T23:42:30.504Z,6.35
2023-03-21T23:44:57.260Z,5.13
2023-03-21T23:47:24.005Z,3.88
2023-03-21T23:49:52.821Z,6.45
2023-03-21T23:52:19.723Z,6.88
2023-03-21T23:54:46.247Z,4.95
2023-03-21T23:57:12.874Z,4.10
2023-03-21T23:59:39.442Z,7.07
